Time;durP1;ratioP1;P1;durP2;ratioP2;P2;SDS_P1;SDS_P2;PMS_P1;PMS_P2;Temp;Humidity;BMP_temperature;BMP_pressure;BME280_temperature;BME280_humidity;BME280_pressure;Samples;Min_cycle;Max_cycle;Signal;HPM_P1;HPM_P2
2021/03/03 00:00:05;;;;;;;12.88;10.40;;;21.40;99.90;;;;;;5073535;28;20029;-67
2021/03/03 00:02:33;;;;;;;12.85;10.63;;;21.30;99.90;;;;;;5074191;28;20519;-67
2021/03/03 00:05:00;;;;;;;12.73;9.52;;;20.90;99.90;;;;;;5074350;28;20025;-68
2021/03/03 00:07:27;;;;;;;12.20;10.20;;;21.20;99.90;;;;;;5072561;28;20036;-68
2021/03/03 00:09:55;;;;;;;12.18;10.35;;;21.20;99.90;;;;;;5073951;28;20017;-68
2021/03/03 00:12:22;;;;;;;12.23;10.48;;;21.30;99.90;;;;;;5073581;28;20024;-67
2021/03/03 00:14:49;;;;;;;12.50;10.40;;;21.20;99.90;;;;;;5073545;28;20405;-67
2021/03/03 00:17:17;;;;;;;10.63;9.30;;;21.30;99.90;;;;;;5073516;28;20052;-67
2021/03/03 00:19:44;;;;;;;12.23;8.52;;;21.50;99.90;;;;;;5072152;28;20024;-67
2021/03/03 00:22:11;;;;;;;13.45;10.10;;;20.90;99.90;;;;;;5073446;28;20029;-73
2021/03/03 00:24:39;;;;;;;14.38;9.57;;;21.30;99.90;;;;;;5073645;28;20035;-68
2021/03/03 00:27:06;;;;;;;10.65;9.57;;;21.50;99.90;;;;;;5073313;28;20112;-68
2021/03/03 00:29:33;;;;;;;10.18;7.80;;;21.70;99.90;;;;;;5074057;28;20024;-69
2021/03/03 00:32:01;;;;;;;9.73;8.73;;;21.80;99.90;;;;;;5073522;28;20017;-68
2021/03/03 00:34:28;;;;;;;10.25;9.23;;;22.10;99.90;;;;;;5073772;28;20377;-66
2021/03/03 00:36:56;;;;;;;14.95;9.07;;;22.30;99.90;;;;;;5071986;28;20480;-68
2021/03/03 00:39:23;;;;;;;14.20;8.25;;;22.30;99.90;;;;;;5073364;28;20103;-69
2021/03/03 00:41:51;;;;;;;9.23;8.20;;;22.10;99.90;;;;;;5071686;28;20052;-68
2021/03/03 00:44:18;;;;;;;9.43;8.55;;;21.90;99.90;;;;;;5073260;28;20389;-68
2021/03/03 00:46:45;;;;;;;9.45;7.90;;;21.90;99.90;;;;;;5073087;28;20123;-69
2021/03/03 00:49:12;;;;;;;8.80;7.82;;;22.20;99.90;;;;;;5073432;28;20032;-68
2021/03/03 00:51:40;;;;;;;13.23;8.27;;;22.80;99.90;;;;;;5073413;28;20423;-69
2021/03/03 00:54:07;;;;;;;10.65;8.88;;;22.70;99.90;;;;;;5073331;28;20493;-68
2021/03/03 00:56:35;;;;;;;13.00;8.70;;;22.60;99.90;;;;;;5073108;28;20016;-68
2021/03/03 00:59:02;;;;;;;12.82;9.38;;;22.50;99.90;;;;;;5073281;28;20032;-67
2021/03/03 01:01:29;;;;;;;9.90;8.88;;;22.00;99.90;;;;;;5073016;28;20032;-68
2021/03/03 01:03:57;;;;;;;10.77;7.95;;;22.50;99.90;;;;;;5072937;28;20104;-68
2021/03/03 01:06:24;;;;;;;13.02;8.80;;;22.80;99.90;;;;;;5073207;28;20496;-67
2021/03/03 01:08:52;;;;;;;13.18;8.77;;;23.20;99.90;;;;;;5072953;28;20070;-68
2021/03/03 01:11:19;;;;;;;12.38;9.02;;;23.20;99.90;;;;;;5076842;28;20103;-67
2021/03/03 01:13:47;;;;;;;9.45;8.45;;;23.00;99.90;;;;;;5076855;28;20024;-67
2021/03/03 01:16:14;;;;;;;10.32;8.15;;;23.80;99.90;;;;;;5076885;28;20034;-68
2021/03/03 01:18:41;;;;;;;8.80;8.05;;;24.00;99.90;;;;;;5077055;28;20104;-69
2021/03/03 01:21:09;;;;;;;8.40;7.63;;;24.20;99.90;;;;;;5076958;28;20461;-68
2021/03/03 01:23:36;;;;;;;9.60;7.63;;;23.90;99.90;;;;;;5076837;28;20023;-67
2021/03/03 01:26:04;;;;;;;8.73;7.32;;;23.30;99.90;;;;;;5076918;28;20035;-67
2021/03/03 01:28:31;;;;;;;11.25;8.93;;;22.90;99.90;;;;;;5076768;28;20035;-68
2021/03/03 01:30:58;;;;;;;8.85;7.95;;;22.70;99.90;;;;;;5077228;28;20104;-67
2021/03/03 01:33:27;;;;;;;9.57;8.35;;;22.60;99.90;;;;;;5076684;28;20104;-67
2021/03/03 01:35:58;;;;;;;7.90;7.00;;;22.80;99.90;;;;;;5076559;28;20089;-67
2021/03/03 01:38:25;;;;;;;10.95;7.65;;;22.90;99.90;;;;;;5076797;28;20423;-68
2021/03/03 01:40:53;;;;;;;9.32;7.95;;;23.40;99.90;;;;;;5076215;28;20059;-67
2021/03/03 01:43:20;;;;;;;11.30;8.02;;;23.20;99.90;;;;;;5076302;28;20021;-67
2021/03/03 01:45:49;;;;;;;12.60;7.95;;;23.90;99.90;;;;;;5076117;28;20099;-69
2021/03/03 01:48:17;;;;;;;8.30;7.72;;;24.50;99.90;;;;;;5076355;28;20472;-68
2021/03/03 01:50:44;;;;;;;10.32;8.15;;;24.70;99.90;;;;;;5076043;28;20025;-68
2021/03/03 01:53:12;;;;;;;9.48;7.97;;;24.60;99.90;;;;;;5074739;28;20027;-68
2021/03/03 01:55:40;;;;;;;7.93;6.30;;;24.40;99.90;;;;;;5076202;28;20025;-67
2021/03/03 01:58:19;;;;;;;12.05;8.15;;;24.10;99.90;;;;;;5076267;28;20427;-68
2021/03/03 02:00:47;;;;;;;10.50;8.20;;;24.10;99.90;;;;;;5076195;28;20025;-67
2021/03/03 02:03:14;;;;;;;9.32;7.60;;;24.20;99.90;;;;;;5074664;28;20024;-67
2021/03/03 02:09:07;;;;;;;9.73;8.40;;;23.80;99.90;;;;;;5076377;28;20069;-67
2021/03/03 02:11:51;;;;;;;11.30;8.20;;;23.60;99.90;;;;;;5075815;28;20037;-67
2021/03/03 02:14:22;;;;;;;7.35;6.40;;;23.60;99.90;;;;;;5074784;28;20021;-67
2021/03/03 02:16:50;;;;;;;10.43;7.82;;;23.20;99.90;;;;;;5076692;28;20421;-67
2021/03/03 02:19:25;;;;;;;8.88;7.70;;;23.20;99.90;;;;;;5076428;28;20064;-67
2021/03/03 02:22:05;;;;;;;7.70;6.90;;;22.80;99.90;;;;;;5075296;28;20025;-68
2021/03/03 02:24:51;;;;;;;8.95;8.05;;;22.90;99.90;;;;;;5075777;28;20100;-66
2021/03/03 02:27:21;;;;;;;8.82;7.50;;;22.80;99.90;;;;;;5075717;28;20052;-67
2021/03/03 02:29:50;;;;;;;10.77;7.40;;;23.10;99.90;;;;;;5075691;28;20021;-67
2021/03/03 02:32:19;;;;;;;7.90;6.03;;;23.10;99.90;;;;;;5075486;28;20087;-66
2021/03/03 02:34:48;;;;;;;7.68;6.53;;;23.10;99.90;;;;;;5075655;28;20094;-67
2021/03/03 02:37:20;;;;;;;6.90;6.30;;;23.40;99.90;;;;;;5075491;28;20020;-66
2021/03/03 02:39:48;;;;;;;8.68;6.35;;;23.60;99.90;;;;;;5074378;28;20028;-68
2021/03/03 02:42:18;;;;;;;9.32;6.53;;;23.40;99.90;;;;;;5075755;28;20536;-68
2021/03/03 02:44:45;;;;;;;;;;;23.70;99.90;;;;;;5075874;28;20032;-67
2021/03/03 02:47:15;;;;;;;9.13;7.10;;;24.10;99.90;;;;;;5074529;28;19909;-68
2021/03/03 02:49:44;;;;;;;9.98;6.95;;;24.40;99.90;;;;;;5075256;28;20016;-69
2021/03/03 02:52:11;;;;;;;7.05;6.35;;;24.40;99.90;;;;;;5074008;28;20452;-68
2021/03/03 02:54:39;;;;;;;9.20;7.20;;;24.60;99.90;;;;;;5075273;28;20021;-68
2021/03/03 02:57:06;;;;;;;10.23;8.52;;;24.00;99.90;;;;;;5073849;28;20544;-69
2021/03/03 02:59:41;;;;;;;9.98;7.68;;;24.30;99.90;;;;;;5075107;28;20116;-70
2021/03/03 03:02:13;;;;;;;9.30;8.40;;;24.60;99.90;;;;;;5075156;28;20031;-68
2021/03/03 03:05:02;;;;;;;12.05;7.68;;;24.40;99.90;;;;;;5074928;28;20033;-69
2021/03/03 03:07:31;;;;;;;10.45;7.38;;;24.10;99.90;;;;;;5073544;28;20056;-70
2021/03/03 03:10:01;;;;;;;7.93;6.35;;;23.70;99.90;;;;;;5074934;28;20028;-69
2021/03/03 03:12:31;;;;;;;9.75;7.75;;;23.60;99.90;;;;;;5074842;28;20416;-70
2021/03/03 03:15:01;;;;;;;11.18;8.43;;;23.70;99.90;;;;;;5074795;28;20078;-71
2021/03/03 03:17:29;;;;;;;;;;;24.30;99.90;;;;;;5075590;28;20025;-68
2021/03/03 03:20:00;;;;;;;8.70;7.90;;;24.30;99.90;;;;;;5074572;28;19904;-69
2021/03/03 03:22:28;;;;;;;9.88;8.07;;;24.00;99.90;;;;;;5074956;28;20107;-68
2021/03/03 03:24:58;;;;;;;8.77;7.55;;;24.00;99.90;;;;;;5074781;28;20099;-70
2021/03/03 03:27:26;;;;;;;9.35;6.93;;;24.20;99.90;;;;;;5074383;28;20067;-69
2021/03/03 03:29:55;;;;;;;16.25;8.60;;;24.00;99.90;;;;;;5075657;28;20029;-70
2021/03/03 03:32:23;;;;;;;9.38;8.18;;;24.00;99.90;;;;;;5072925;28;20070;-69
2021/03/03 03:34:51;;;;;;;13.10;8.25;;;24.20;99.90;;;;;;5073684;28;20020;-70
2021/03/03 03:37:19;;;;;;;9.15;7.82;;;23.80;99.90;;;;;;5074269;28;20111;-68
2021/03/03 03:39:50;;;;;;;10.70;7.97;;;23.60;99.90;;;;;;5074279;28;20021;-69
2021/03/03 03:42:18;;;;;;;11.07;7.95;;;23.20;99.90;;;;;;5074315;28;20063;-70
2021/03/03 03:44:50;;;;;;;8.88;6.75;;;23.60;99.90;;;;;;5072932;28;20075;-70
2021/03/03 03:47:19;;;;;;;8.38;7.50;;;24.30;99.90;;;;;;5074333;28;20052;-69
2021/03/03 03:49:50;;;;;;;9.70;7.30;;;24.40;99.90;;;;;;5074115;28;20027;-69
2021/03/03 03:52:18;;;;;;;8.85;6.20;;;24.10;99.90;;;;;;5074221;28;20066;-68
2021/03/03 03:54:53;;;;;;;9.13;7.55;;;24.10;99.90;;;;;;5074469;28;20021;-68
2021/03/03 03:57:21;;;;;;;10.07;7.35;;;23.90;99.90;;;;;;5072873;28;20028;-65
2021/03/03 03:59:49;;;;;;;9.63;6.78;;;23.70;99.90;;;;;;5074176;28;20074;-68
2021/03/03 04:02:17;;;;;;;9.18;7.47;;;23.70;99.90;;;;;;5073689;28;20388;-67
2021/03/03 04:04:45;;;;;;;10.45;7.85;;;23.60;99.90;;;;;;5072399;28;20028;-67
2021/03/03 04:07:12;;;;;;;8.30;7.40;;;24.40;99.90;;;;;;5073475;28;20056;-67
2021/03/03 04:09:40;;;;;;;7.53;6.80;;;25.30;99.90;;;;;;5073503;28;20020;-67
2021/03/03 04:12:07;;;;;;;8.15;7.45;;;25.00;99.90;;;;;;5072142;28;20082;-67
2021/03/03 04:14:35;;;;;;;10.45;8.15;;;24.40;99.90;;;;;;5073646;28;20077;-67
2021/03/03 04:17:03;;;;;;;8.30;7.35;;;23.90;99.90;;;;;;5073729;28;20021;-66
2021/03/03 04:19:30;;;;;;;7.93;7.18;;;23.80;99.90;;;;;;5073589;28;20025;-66
2021/03/03 04:21:57;;;;;;;10.27;7.97;;;23.20;99.90;;;;;;5073498;28;20029;-63
2021/03/03 04:24:24;;;;;;;8.93;7.05;;;23.10;99.90;;;;;;5073318;28;20511;-63
2021/03/03 04:26:52;;;;;;;10.48;7.32;;;23.70;99.90;;;;;;5073224;28;20021;-63
2021/03/03 04:29:19;;;;;;;7.43;6.70;;;23.90;99.90;;;;;;5073359;28;20025;-62
2021/03/03 04:31:46;;;;;;;9.55;6.63;;;24.40;99.90;;;;;;5073406;28;20028;-62
2021/03/03 04:34:14;;;;;;;8.82;6.15;;;25.00;99.90;;;;;;5073530;28;20074;-62
2021/03/03 04:36:41;;;;;;;9.25;6.57;;;24.30;99.90;;;;;;5073269;28;20029;-63
2021/03/03 04:39:08;;;;;;;9.65;6.18;;;24.20;99.90;;;;;;5073188;28;20031;-62
2021/03/03 04:41:36;;;;;;;8.98;6.40;;;23.70;99.90;;;;;;5073010;28;20045;-63
2021/03/03 04:44:03;;;;;;;7.07;6.43;;;23.30;99.90;;;;;;5072740;28;20428;-63
2021/03/03 04:46:31;;;;;;;10.32;6.60;;;23.20;99.90;;;;;;5073212;28;20112;-62
2021/03/03 04:48:58;;;;;;;6.90;5.28;;;23.10;99.90;;;;;;5073520;28;20027;-63
2021/03/03 04:51:25;;;;;;;7.60;6.80;;;23.30;99.90;;;;;;5071679;28;20021;-63
2021/03/03 04:53:53;;;;;;;8.63;6.10;;;24.20;99.90;;;;;;5073024;28;20017;-62
2021/03/03 04:56:20;;;;;;;7.22;5.43;;;24.40;99.90;;;;;;5071735;28;20461;-62
2021/03/03 04:58:47;;;;;;;7.47;6.72;;;23.70;99.90;;;;;;5073070;28;20020;-63
2021/03/03 05:01:15;;;;;;;10.38;7.00;;;23.20;99.90;;;;;;5073063;28;20369;-62
2021/03/03 05:03:42;;;;;;;7.03;6.10;;;23.00;99.90;;;;;;5072980;28;20074;-62
2021/03/03 05:06:09;;;;;;;10.50;7.20;;;22.70;99.90;;;;;;5072846;28;20020;-62
2021/03/03 05:08:37;;;;;;;9.02;6.60;;;22.90;99.90;;;;;;5072768;28;20021;-62
2021/03/03 05:11:04;;;;;;;8.93;6.18;;;23.30;99.90;;;;;;5072649;28;20025;-62
2021/03/03 05:13:32;;;;;;;11.38;7.10;;;23.40;99.90;;;;;;5072539;28;20024;-62
2021/03/03 05:15:59;;;;;;;7.15;5.68;;;23.10;99.90;;;;;;5072738;28;20074;-62
2021/03/03 05:18:26;;;;;;;8.13;6.20;;;22.50;99.90;;;;;;5072710;28;20055;-62
2021/03/03 05:20:54;;;;;;;9.32;8.23;;;22.50;99.90;;;;;;5072664;28;20017;-62
2021/03/03 05:23:31;;;;;;;8.20;7.40;;;22.20;99.90;;;;;;5072782;28;20036;-62
2021/03/03 05:26:01;;;;;;;8.43;6.65;;;22.40;99.90;;;;;;5072724;28;20029;-63
2021/03/03 05:28:29;;;;;;;8.10;7.35;;;22.60;99.90;;;;;;5072391;28;20025;-61
2021/03/03 05:30:56;;;;;;;9.23;7.00;;;23.00;99.90;;;;;;5073031;28;20071;-61
2021/03/03 05:33:35;;;;;;;6.72;6.07;;;23.40;99.90;;;;;;5072593;28;20044;-62
2021/03/03 05:36:06;;;;;;;11.55;7.45;;;23.40;99.90;;;;;;5071232;28;20055;-63
2021/03/03 05:38:35;;;;;;;8.10;7.15;;;23.10;99.90;;;;;;5072792;28;20029;-63
2021/03/03 05:41:03;;;;;;;8.75;6.68;;;22.70;99.90;;;;;;5072534;28;20095;-63
2021/03/03 05:43:34;;;;;;;7.75;6.95;;;22.50;99.90;;;;;;5072664;28;20031;-62
2021/03/03 05:46:02;;;;;;;10.00;7.55;;;22.60;99.90;;;;;;5072758;28;20077;-63
2021/03/03 05:48:49;;;;;;;10.77;7.07;;;22.30;99.90;;;;;;5072373;28;20029;-62
2021/03/03 05:51:17;;;;;;;7.63;6.88;;;22.20;99.90;;;;;;5072496;28;20017;-63
2021/03/03 05:53:46;;;;;;;8.95;7.40;;;22.10;99.90;;;;;;5072428;28;20027;-63
2021/03/03 05:56:13;;;;;;;8.27;7.00;;;22.30;99.90;;;;;;5071350;28;20016;-62
2021/03/03 05:58:41;;;;;;;12.10;7.40;;;22.20;99.90;;;;;;5076053;28;20029;-63
2021/03/03 06:01:10;;;;;;;12.80;8.13;;;22.20;99.90;;;;;;5075980;28;20493;-63
2021/03/03 06:03:39;;;;;;;9.15;7.47;;;22.10;99.90;;;;;;5075805;28;20028;-63
2021/03/03 06:06:06;;;;;;;8.10;7.40;;;22.00;99.90;;;;;;5075841;28;20108;-63
2021/03/03 06:08:35;;;;;;;9.07;8.20;;;22.20;99.90;;;;;;5075757;28;20028;-63
2021/03/03 06:11:03;;;;;;;9.57;7.15;;;22.30;99.90;;;;;;5075622;28;20079;-63
2021/03/03 06:13:32;;;;;;;9.75;6.57;;;23.30;99.90;;;;;;5075640;28;20029;-63
2021/03/03 06:15:59;;;;;;;9.32;7.53;;;23.70;99.90;;;;;;5075455;28;20062;-63
2021/03/03 06:18:27;;;;;;;10.13;6.70;;;23.60;99.90;;;;;;5075772;28;20021;-63
2021/03/03 06:20:56;;;;;;;7.60;5.90;;;23.30;99.90;;;;;;5075591;28;20024;-62
2021/03/03 06:23:30;;;;;;;10.55;6.90;;;23.20;99.90;;;;;;5075479;28;20071;-63
2021/03/03 06:26:04;;;;;;;9.38;6.90;;;23.40;99.90;;;;;;5075867;28;20373;-62
2021/03/03 06:28:42;;;;;;;7.97;5.65;;;23.90;99.90;;;;;;5076013;28;20094;-62
2021/03/03 06:31:24;;;;;;;8.60;7.22;;;23.80;99.90;;;;;;5075509;28;20116;-63
2021/03/03 06:33:54;;;;;;;8.13;7.50;;;23.50;99.90;;;;;;5075651;28;20063;-63
2021/03/03 06:36:29;;;;;;;12.27;9.68;;;23.20;99.90;;;;;;5073895;28;20115;-61
2021/03/03 06:38:56;;;;;;;11.32;9.00;;;23.10;99.90;;;;;;5075458;28;20032;-61
2021/03/03 06:41:38;;;;;;;12.38;7.90;;;22.90;99.90;;;;;;5074888;28;20067;-60
2021/03/03 06:44:06;;;;;;;8.63;7.38;;;23.10;99.90;;;;;;5075066;28;20026;-61
2021/03/03 06:46:34;;;;;;;9.52;7.60;;;23.10;99.90;;;;;;5075114;28;20423;-60
2021/03/03 06:49:02;;;;;;;8.80;7.13;;;22.90;99.90;;;;;;5075039;28;20059;-60
2021/03/03 06:51:34;;;;;;;12.00;7.38;;;22.80;99.90;;;;;;5075121;28;20062;-60
2021/03/03 06:54:03;;;;;;;11.05;7.20;;;22.50;99.90;;;;;;5075327;28;20558;-60
2021/03/03 06:56:34;;;;;;;9.43;7.32;;;22.30;99.90;;;;;;5075012;28;20488;-60
2021/03/03 06:59:31;;;;;;;9.95;7.75;;;22.60;99.90;;;;;;5073458;28;20499;-59
2021/03/03 07:02:00;;;;;;;9.00;6.90;;;22.70;99.90;;;;;;5062504;28;20040;-59
2021/03/03 07:04:32;;;;;;;9.15;8.18;;;23.70;99.90;;;;;;5074426;28;20477;-60
2021/03/03 07:07:02;;;;;;;10.30;7.60;;;23.40;99.90;;;;;;5074264;28;20170;-60
2021/03/03 07:09:47;;;;;;;;;;;23.00;99.90;;;;;;5075368;28;20484;-59
2021/03/03 07:12:17;;;;;;;8.95;8.00;;;22.50;99.90;;;;;;5074344;28;19904;-61
2021/03/03 07:14:55;;;;;;;9.30;8.20;;;22.00;99.90;;;;;;5074613;28;20365;-59
2021/03/03 07:17:22;;;;;;;8.00;7.15;;;21.60;99.90;;;;;;5074457;28;20029;-59
2021/03/03 07:20:16;;;;;;;10.50;8.52;;;21.50;99.90;;;;;;5074304;28;20049;-61
2021/03/03 07:22:57;;;;;;;11.55;8.48;;;21.60;99.90;;;;;;5072350;28;20044;-60
2021/03/03 07:25:24;;;;;;;10.18;7.82;;;21.80;99.90;;;;;;5074199;28;20493;-60
2021/03/03 07:27:52;;;;;;;8.48;7.20;;;21.60;99.90;;;;;;5073817;28;20025;-59
2021/03/03 07:30:24;;;;;;;7.85;7.05;;;21.70;99.90;;;;;;5074098;28;20020;-60
2021/03/03 07:32:52;;;;;;;9.07;6.07;;;21.70;99.90;;;;;;5074044;28;20044;-61
2021/03/03 07:35:19;;;;;;;8.23;7.00;;;21.80;99.90;;;;;;5074060;28;20541;-61
2021/03/03 07:37:55;;;;;;;9.57;7.30;;;21.70;99.90;;;;;;5073998;28;20483;-61
2021/03/03 07:40:28;;;;;;;8.18;6.03;;;21.60;99.90;;;;;;5073841;28;20055;-61
2021/03/03 07:43:01;;;;;;;8.15;7.07;;;21.50;99.90;;;;;;5074393;28;20048;-61
2021/03/03 07:45:42;;;;;;;12.02;7.53;;;21.30;99.90;;;;;;5073827;28;20024;-61
2021/03/03 07:48:11;;;;;;;8.93;7.03;;;21.30;99.90;;;;;;5074363;28;20530;-66
2021/03/03 07:50:39;;;;;;;10.40;6.03;;;21.10;99.90;;;;;;5073679;28;20052;-56
2021/03/03 07:53:09;;;;;;;8.45;7.65;;;21.10;99.90;;;;;;5073725;28;20107;-60
2021/03/03 07:55:37;;;;;;;11.05;8.15;;;21.00;99.90;;;;;;5073658;28;20016;-61
2021/03/03 07:58:08;;;;;;;7.07;6.35;;;21.00;99.90;;;;;;5072151;28;20021;-61
2021/03/03 08:00:39;;;;;;;8.73;7.72;;;20.90;99.90;;;;;;5073264;28;20077;-60
2021/03/03 08:03:07;;;;;;;9.82;7.07;;;20.80;99.90;;;;;;5073439;28;20033;-62
2021/03/03 08:05:40;;;;;;;7.97;6.75;;;20.90;99.90;;;;;;5073425;28;20047;-61
2021/03/03 08:08:29;;;;;;;12.85;7.93;;;20.90;99.90;;;;;;5073600;28;20016;-59
2021/03/03 08:11:02;;;;;;;7.57;6.88;;;20.60;99.90;;;;;;5073328;28;20449;-59
2021/03/03 08:13:34;;;;;;;8.65;6.80;;;20.50;99.90;;;;;;5074052;28;20020;-59
2021/03/03 08:16:04;;;;;;;10.18;7.72;;;20.40;99.90;;;;;;5073419;28;20017;-59
2021/03/03 08:18:33;;;;;;;10.75;7.90;;;20.20;99.90;;;;;;5073589;28;20035;-59
2021/03/03 08:21:22;;;;;;;7.60;6.78;;;20.10;99.90;;;;;;5072953;28;20416;-62
2021/03/03 08:23:50;;;;;;;8.43;7.45;;;20.10;99.90;;;;;;5073055;28;20392;-59
2021/03/03 08:26:17;;;;;;;12.32;7.60;;;20.00;99.90;;;;;;5073565;28;20086;-65
2021/03/03 08:28:55;;;;;;;9.68;7.97;;;19.90;99.90;;;;;;5073558;28;20040;-66
2021/03/03 08:31:24;;;;;;;11.27;8.23;;;19.90;99.90;;;;;;5073449;28;20095;-67
2021/03/03 08:33:52;;;;;;;8.68;7.90;;;19.80;99.90;;;;;;5073551;28;20042;-66
2021/03/03 08:36:29;;;;;;;8.95;7.60;;;19.80;99.90;;;;;;5073305;28;20038;-66
2021/03/03 08:38:56;;;;;;;9.75;8.23;;;19.70;99.90;;;;;;5073879;28;20027;-65
2021/03/03 08:41:29;;;;;;;9.18;8.25;;;19.70;99.90;;;;;;5073835;28;20469;-67
2021/03/03 08:44:04;;;;;;;10.07;8.18;;;19.70;99.90;;;;;;5073723;28;20116;-65
2021/03/03 08:46:31;;;;;;;9.68;7.97;;;19.60;99.90;;;;;;5073939;28;20027;-65
2021/03/03 08:48:59;;;;;;;8.88;7.93;;;19.60;99.90;;;;;;5073942;28;20047;-68
2021/03/03 08:51:30;;;;;;;10.50;8.15;;;19.60;99.90;;;;;;5071987;28;20117;-66
2021/03/03 08:54:04;;;;;;;8.80;7.47;;;19.60;99.90;;;;;;5073224;28;20027;-67
2021/03/03 08:56:44;;;;;;;9.60;7.60;;;19.50;99.90;;;;;;5072282;28;20025;-67
2021/03/03 08:59:30;;;;;;;12.10;7.80;;;19.50;99.90;;;;;;5073296;28;20028;-65
2021/03/03 09:01:58;;;;;;;12.35;7.40;;;19.50;99.90;;;;;;5073916;28;20043;-68
2021/03/03 09:04:33;;;;;;;7.88;7.15;;;19.50;99.90;;;;;;5073266;28;20107;-66
2021/03/03 09:07:29;;;;;;;8.80;7.65;;;19.50;99.90;;;;;;5073173;28;20035;-68
2021/03/03 09:10:03;;;;;;;10.88;8.63;;;19.40;99.90;;;;;;5070780;28;20029;-66
2021/03/03 09:12:39;;;;;;;10.07;6.88;;;19.40;99.90;;;;;;5073484;28;20100;-66
2021/03/03 09:15:09;;;;;;;8.80;7.40;;;19.40;99.90;;;;;;5073296;28;20068;-68
2021/03/03 09:17:37;;;;;;;11.05;8.60;;;19.40;99.90;;;;;;5073193;28;20509;-66
2021/03/03 09:20:08;;;;;;;13.02;8.35;;;19.40;99.90;;;;;;5073043;28;20498;-67
2021/03/03 09:22:44;;;;;;;10.68;8.57;;;19.30;99.90;;;;;;5073567;28;20155;-67
2021/03/03 09:25:19;;;;;;;13.15;8.45;;;19.30;99.90;;;;;;5072988;28;20029;-67
2021/03/03 09:27:51;;;;;;;9.57;7.78;;;19.30;99.90;;;;;;5073273;28;20024;-68
2021/03/03 09:30:20;;;;;;;9.80;7.32;;;19.30;99.90;;;;;;5073330;28;20027;-68
2021/03/03 09:32:48;;;;;;;9.13;8.38;;;19.40;99.90;;;;;;5076306;28;20100;-68
2021/03/03 09:35:18;;;;;;;9.45;8.50;;;19.30;99.90;;;;;;5076831;28;20109;-66
2021/03/03 09:37:47;;;;;;;11.63;8.13;;;19.40;99.90;;;;;;5076811;28;20036;-67
2021/03/03 09:40:18;;;;;;;9.65;8.70;;;19.30;99.90;;;;;;5076424;28;20435;-66
2021/03/03 09:42:49;;;;;;;10.55;8.52;;;19.30;99.90;;;;;;5076514;28;20062;-67
2021/03/03 09:45:21;;;;;;;12.90;7.18;;;19.40;99.90;;;;;;5076648;28;20427;-67
2021/03/03 09:47:49;;;;;;;9.85;7.85;;;19.40;99.90;;;;;;5076409;28;20016;-67
2021/03/03 09:50:25;;;;;;;13.45;8.38;;;19.40;99.90;;;;;;5076419;28;20461;-68
2021/03/03 09:52:54;;;;;;;9.82;8.30;;;19.40;99.90;;;;;;5076335;28;20020;-68
2021/03/03 09:55:26;;;;;;;8.65;7.90;;;19.40;99.90;;;;;;5076368;28;20048;-68
2021/03/03 09:57:57;;;;;;;12.25;8.98;;;19.40;99.90;;;;;;5076633;28;20021;-67
2021/03/03 10:00:35;;;;;;;9.52;8.60;;;19.40;99.90;;;;;;5076911;28;20107;-67
2021/03/03 10:03:22;;;;;;;8.68;7.90;;;19.40;99.90;;;;;;5076721;28;20024;-67
2021/03/03 10:05:55;;;;;;;8.48;7.60;;;19.30;99.90;;;;;;5076191;28;20046;-67
2021/03/03 10:08:25;;;;;;;8.57;7.60;;;19.30;99.90;;;;;;5076083;28;20067;-69
2021/03/03 10:10:56;;;;;;;8.80;7.90;;;19.40;99.90;;;;;;5076310;28;20433;-68
2021/03/03 10:13:26;;;;;;;9.00;7.50;;;19.40;99.90;;;;;;5076439;28;20415;-67
2021/03/03 10:15:53;;;;;;;8.23;6.90;;;19.40;99.90;;;;;;5075976;28;20020;-67
2021/03/03 10:18:21;;;;;;;10.93;7.57;;;19.40;99.90;;;;;;5076064;28;20035;-67
2021/03/03 10:20:53;;;;;;;10.35;8.15;;;19.30;99.90;;;;;;5076328;28;20027;-67
2021/03/03 10:23:27;;;;;;;10.10;7.95;;;19.30;99.90;;;;;;5075865;28;20024;-67
2021/03/03 10:26:05;;;;;;;11.02;8.82;;;19.30;99.90;;;;;;5074596;28;20044;-69
2021/03/03 10:28:36;;;;;;;9.05;7.90;;;19.30;99.90;;;;;;5076133;28;20029;-67
2021/03/03 10:31:05;;;;;;;12.55;8.50;;;19.30;99.90;;;;;;5075748;28;20028;-69
2021/03/03 10:33:42;;;;;;;9.63;7.70;;;19.30;99.90;;;;;;5075760;28;20473;-68
2021/03/03 10:36:16;;;;;;;11.38;7.50;;;19.30;99.90;;;;;;5075743;28;20020;-68
2021/03/03 10:38:49;;;;;;;8.57;7.88;;;19.20;99.90;;;;;;5075780;28;20040;-66
2021/03/03 10:41:25;;;;;;;13.77;8.32;;;19.20;99.90;;;;;;5073963;28;20136;-67
2021/03/03 10:43:53;;;;;;;8.07;6.72;;;19.20;99.90;;;;;;5073665;28;20020;-68
2021/03/03 10:46:23;;;;;;;9.13;8.20;;;19.20;99.90;;;;;;5075388;28;20103;-67
2021/03/03 10:48:52;;;;;;;9.50;7.85;;;19.20;99.90;;;;;;5075673;28;20052;-67
2021/03/03 10:51:33;;;;;;;10.82;8.07;;;19.20;99.90;;;;;;5075674;28;20020;-67
2021/03/03 10:54:00;;;;;;;8.77;7.10;;;19.10;99.90;;;;;;5075401;28;20028;-67
2021/03/03 10:56:33;;;;;;;8.48;7.65;;;19.10;99.90;;;;;;5075655;28;20108;-68
2021/03/03 10:59:19;;;;;;;8.93;8.10;;;19.00;99.90;;;;;;5075677;28;20069;-68
2021/03/03 11:02:00;;;;;;;9.15;7.65;;;19.10;99.90;;;;;;5075532;28;20100;-69
2021/03/03 11:04:42;;;;;;;8.30;7.50;;;19.00;99.90;;;;;;5073840;28;20020;-68
2021/03/03 11:07:10;;;;;;;10.57;8.57;;;18.90;99.90;;;;;;5075784;28;20076;-68
2021/03/03 11:09:38;;;;;;;11.85;8.40;;;18.80;99.90;;;;;;5075075;28;20020;-68
2021/03/03 11:12:07;;;;;;;11.68;8.15;;;18.80;99.90;;;;;;5075157;28;20017;-68
2021/03/03 11:14:35;;;;;;;12.40;7.65;;;18.70;99.90;;;;;;5075116;28;20024;-69
2021/03/03 11:17:04;;;;;;;8.88;7.20;;;18.80;99.90;;;;;;5074918;28;20027;-68
2021/03/03 11:19:31;;;;;;;9.45;7.47;;;18.80;99.90;;;;;;5075514;28;20029;-68
2021/03/03 11:21:59;;;;;;;7.53;6.80;;;18.80;99.90;;;;;;5074833;28;20027;-69
2021/03/03 11:24:26;;;;;;;8.65;7.85;;;18.90;99.90;;;;;;5075262;28;20031;-68
2021/03/03 11:26:54;;;;;;;8.45;7.65;;;18.90;99.90;;;;;;5073409;28;20115;-68
2021/03/03 11:29:21;;;;;;;10.15;8.45;;;19.00;99.90;;;;;;5073403;28;20032;-68
2021/03/03 11:31:48;;;;;;;8.07;7.38;;;19.00;99.90;;;;;;5074726;28;20069;-68
2021/03/03 11:34:16;;;;;;;8.10;7.30;;;19.10;99.90;;;;;;5075116;28;20033;-67
2021/03/03 11:36:43;;;;;;;8.20;7.40;;;19.10;99.90;;;;;;5073189;28;20096;-68
2021/03/03 11:39:11;;;;;;;9.52;7.65;;;19.20;99.90;;;;;;5074687;28;20048;-68
2021/03/03 11:41:38;;;;;;;9.35;6.43;;;19.20;99.90;;;;;;5074309;28;20041;-68
2021/03/03 11:44:07;;;;;;;7.90;7.18;;;19.20;99.90;;;;;;5074416;28;20020;-68
2021/03/03 11:46:35;;;;;;;8.30;7.32;;;19.20;99.90;;;;;;5073189;28;20055;-68
2021/03/03 11:49:02;;;;;;;7.55;6.93;;;19.10;99.90;;;;;;5074441;28;20044;-68
2021/03/03 11:51:32;;;;;;;7.45;6.15;;;19.10;99.90;;;;;;5074309;28;20473;-68
2021/03/03 11:53:59;;;;;;;8.13;7.40;;;19.00;99.90;;;;;;5072024;28;20027;-68
2021/03/03 11:56:27;;;;;;;7.78;7.05;;;18.90;99.90;;;;;;5074133;28;20461;-68
2021/03/03 11:58:54;;;;;;;9.60;7.55;;;18.90;99.90;;;;;;5074045;28;20017;-68
2021/03/03 12:01:21;;;;;;;6.93;6.22;;;18.90;99.90;;;;;;5074108;28;20032;-69
2021/03/03 12:03:49;;;;;;;7.90;7.13;;;18.80;99.90;;;;;;5073847;28;20028;-68
2021/03/03 12:06:16;;;;;;;8.55;7.75;;;18.90;99.90;;;;;;5073951;28;20032;-68
2021/03/03 12:08:43;;;;;;;9.77;8.77;;;19.00;99.90;;;;;;5073769;28;20067;-69
2021/03/03 12:11:11;;;;;;;11.80;7.30;;;19.00;99.90;;;;;;5074360;28;20038;-68
2021/03/03 12:13:39;;;;;;;8.70;7.90;;;19.00;99.90;;;;;;5073634;28;20066;-67
2021/03/03 12:16:06;;;;;;;8.60;7.80;;;19.00;99.90;;;;;;5073849;28;20020;-67
2021/03/03 12:18:33;;;;;;;9.95;8.10;;;19.00;99.90;;;;;;5074218;28;20034;-68
2021/03/03 12:21:01;;;;;;;7.90;7.13;;;19.00;99.90;;;;;;5073559;28;20031;-68
2021/03/03 12:23:28;;;;;;;9.52;8.60;;;19.00;99.90;;;;;;5073749;28;20056;-68
2021/03/03 12:25:55;;;;;;;9.80;8.90;;;19.10;99.90;;;;;;5073950;28;20020;-68
2021/03/03 12:28:23;;;;;;;9.57;8.80;;;19.10;99.90;;;;;;5073438;28;20384;-68
2021/03/03 12:30:50;;;;;;;12.30;8.30;;;19.10;99.90;;;;;;5073719;28;20017;-68
2021/03/03 12:33:18;;;;;;;10.10;9.10;;;19.10;99.90;;;;;;5073464;28;20021;-68
2021/03/03 12:35:46;;;;;;;13.25;9.23;;;19.10;99.90;;;;;;5073599;28;20099;-68
2021/03/03 12:38:13;;;;;;;11.75;9.23;;;19.20;99.90;;;;;;5073405;28;20028;-68
2021/03/03 12:40:42;;;;;;;10.75;7.93;;;19.20;99.90;;;;;;5073209;28;20045;-68
2021/03/03 12:43:09;;;;;;;9.85;9.07;;;19.20;99.90;;;;;;5073534;28;20071;-68
2021/03/03 12:45:37;;;;;;;10.23;9.35;;;19.20;99.90;;;;;;5074050;28;20028;-68
2021/03/03 12:48:05;;;;;;;10.52;9.52;;;19.20;99.90;;;;;;5071976;28;20078;-68
2021/03/03 12:50:33;;;;;;;10.43;8.48;;;19.20;99.90;;;;;;5073491;28;20052;-68
2021/03/03 12:53:00;;;;;;;11.68;10.50;;;19.20;99.90;;;;;;5073412;28;20051;-68
2021/03/03 12:55:27;;;;;;;10.18;9.43;;;19.20;99.90;;;;;;5073340;28;20105;-68
2021/03/03 12:57:55;;;;;;;11.63;10.45;;;19.20;99.90;;;;;;5072028;28;20027;-68
2021/03/03 13:00:22;;;;;;;9.98;8.98;;;19.20;99.90;;;;;;5073655;28;20028;-68